sensor_id;sensor_type;location;lat;lon;timestamp;temperature;humidity
37002;DHT22;22913;51.910;8.374;2022-12-01T00:01:22;6.70;99.90
37002;DHT22;22913;51.910;8.374;2022-12-01T00:04:09;6.70;99.90
37002;DHT22;22913;51.910;8.374;2022-12-01T00:06:55;6.70;99.90
37002;DHT22;22913;51.910;8.374;2022-12-01T00:09:41;6.70;99.90
37002;DHT22;22913;51.910;8.374;2022-12-01T00:12:44;6.70;99.90
37002;DHT22;22913;51.910;8.374;2022-12-01T00:15:31;6.70;99.90
37002;DHT22;22913;51.910;8.374;2022-12-01T00:18:18;6.80;99.90
37002;DHT22;22913;51.910;8.374;2022-12-01T00:21:07;6.70;99.90
37002;DHT22;22913;51.910;8.374;2022-12-01T00:23:57;6.80;99.90
37002;DHT22;22913;51.910;8.374;2022-12-01T00:26:43;6.80;99.90
37002;DHT22;22913;51.910;8.374;2022-12-01T00:29:28;6.80;99.90
37002;DHT22;22913;51.910;8.374;2022-12-01T00:32:14;6.80;99.90
37002;DHT22;22913;51.910;8.374;2022-12-01T00:35:00;6.80;99.90
37002;DHT22;22913;51.910;8.374;2022-12-01T00:37:48;6.80;99.90
37002;DHT22;22913;51.910;8.374;2022-12-01T00:40:33;6.80;99.90
37002;DHT22;22913;51.910;8.374;2022-12-01T00:43:20;6.80;99.90
37002;DHT22;22913;51.910;8.374;2022-12-01T00:46:05;6.70;99.90
37002;DHT22;22913;51.910;8.374;2022-12-01T00:48:51;6.70;99.90
37002;DHT22;22913;51.910;8.374;2022-12-01T00:51:37;6.70;99.90
37002;DHT22;22913;51.910;8.374;2022-12-01T00:54:24;6.60;99.90
37002;DHT22;22913;51.910;8.374;2022-12-01T00:57:10;6.60;99.90
37002;DHT22;22913;51.910;8.374;2022-12-01T00:59:56;6.60;99.90
37002;DHT22;22913;51.910;8.374;2022-12-01T01:02:41;6.60;99.90
37002;DHT22;22913;51.910;8.374;2022-12-01T01:05:27;6.60;99.90
37002;DHT22;22913;51.910;8.374;2022-12-01T01:08:13;6.60;99.90
37002;DHT22;22913;51.910;8.374;2022-12-01T01:11:01;6.50;99.90
37002;DHT22;22913;51.910;8.374;2022-12-01T01:13:46;6.40;99.90
37002;DHT22;22913;51.910;8.374;2022-12-01T01:16:32;6.50;99.90
37002;DHT22;22913;51.910;8.374;2022-12-01T01:19:18;6.50;99.90
37002;DHT22;22913;51.910;8.374;2022-12-01T01:22:03;6.50;99.90
37002;DHT22;22913;51.910;8.374;2022-12-01T01:24:49;6.50;99.90
37002;DHT22;22913;51.910;8.374;2022-12-01T01:27:35;6.50;99.90
37002;DHT22;22913;51.910;8.374;2022-12-01T01:30:21;6.50;99.90
37002;DHT22;22913;51.910;8.374;2022-12-01T01:33:07;6.50;99.90
37002;DHT22;22913;51.910;8.374;2022-12-01T01:35:52;6.50;99.90
37002;DHT22;22913;51.910;8.374;2022-12-01T01:38:38;6.40;99.90
37002;DHT22;22913;51.910;8.374;2022-12-01T01:41:24;6.40;99.90
37002;DHT22;22913;51.910;8.374;2022-12-01T01:47:41;6.40;99.90
37002;DHT22;22913;51.910;8.374;2022-12-01T01:50:27;6.40;99.90
37002;DHT22;22913;51.910;8.374;2022-12-01T01:53:13;6.40;99.90
37002;DHT22;22913;51.910;8.374;2022-12-01T01:56:00;6.40;99.90
37002;DHT22;22913;51.910;8.374;2022-12-01T01:58:47;6.30;99.90
37002;DHT22;22913;51.910;8.374;2022-12-01T02:01:33;6.40;99.90
37002;DHT22;22913;51.910;8.374;2022-12-01T02:04:20;6.40;99.90
37002;DHT22;22913;51.910;8.374;2022-12-01T02:07:08;6.40;99.90
37002;DHT22;22913;51.910;8.374;2022-12-01T02:09:54;6.40;99.90
37002;DHT22;22913;51.910;8.374;2022-12-01T02:12:50;6.40;99.90
37002;DHT22;22913;51.910;8.374;2022-12-01T02:15:44;6.40;99.90
37002;DHT22;22913;51.910;8.374;2022-12-01T02:18:40;6.40;99.90
37002;DHT22;22913;51.910;8.374;2022-12-01T02:21:48;6.30;99.90
37002;DHT22;22913;51.910;8.374;2022-12-01T02:24:50;6.30;99.90
37002;DHT22;22913;51.910;8.374;2022-12-01T02:27:50;6.40;99.90
37002;DHT22;22913;51.910;8.374;2022-12-01T02:30:40;6.40;99.90
37002;DHT22;22913;51.910;8.374;2022-12-01T02:33:34;6.40;99.90
37002;DHT22;22913;51.910;8.374;2022-12-01T02:36:29;6.40;99.90
37002;DHT22;22913;51.910;8.374;2022-12-01T02:39:20;6.40;99.90
37002;DHT22;22913;51.910;8.374;2022-12-01T02:42:10;6.50;99.90
37002;DHT22;22913;51.910;8.374;2022-12-01T02:45:25;6.40;99.90
37002;DHT22;22913;51.910;8.374;2022-12-01T02:48:17;6.40;99.90
37002;DHT22;22913;51.910;8.374;2022-12-01T02:51:08;6.40;99.90
37002;DHT22;22913;51.910;8.374;2022-12-01T02:53:56;6.30;99.90
37002;DHT22;22913;51.910;8.374;2022-12-01T02:56:43;6.40;99.90
37002;DHT22;22913;51.910;8.374;2022-12-01T02:59:29;6.30;99.90
37002;DHT22;22913;51.910;8.374;2022-12-01T03:02:22;6.30;99.90
37002;DHT22;22913;51.910;8.374;2022-12-01T03:05:19;6.30;99.90
37002;DHT22;22913;51.910;8.374;2022-12-01T03:08:14;6.40;99.90
37002;DHT22;22913;51.910;8.374;2022-12-01T03:11:04;6.40;99.90
37002;DHT22;22913;51.910;8.374;2022-12-01T03:13:56;6.30;99.90
37002;DHT22;22913;51.910;8.374;2022-12-01T03:16:49;6.40;99.90
37002;DHT22;22913;51.910;8.374;2022-12-01T03:19:38;6.40;99.90
37002;DHT22;22913;51.910;8.374;2022-12-01T03:22:31;6.30;99.90
37002;DHT22;22913;51.910;8.374;2022-12-01T03:25:19;6.30;99.90
37002;DHT22;22913;51.910;8.374;2022-12-01T03:28:08;6.30;99.90
37002;DHT22;22913;51.910;8.374;2022-12-01T03:30:59;6.30;99.90
37002;DHT22;22913;51.910;8.374;2022-12-01T03:33:49;6.40;99.90
37002;DHT22;22913;51.910;8.374;2022-12-01T03:36:38;6.40;99.90
37002;DHT22;22913;51.910;8.374;2022-12-01T03:39:29;6.40;99.90
37002;DHT22;22913;51.910;8.374;2022-12-01T03:42:25;6.40;99.90
37002;DHT22;22913;51.910;8.374;2022-12-01T03:45:15;6.40;99.90
37002;DHT22;22913;51.910;8.374;2022-12-01T03:48:01;6.40;99.90
37002;DHT22;22913;51.910;8.374;2022-12-01T03:50:55;6.40;99.90
37002;DHT22;22913;51.910;8.374;2022-12-01T03:53:49;6.30;99.90
37002;DHT22;22913;51.910;8.374;2022-12-01T03:56:41;6.30;99.90
37002;DHT22;22913;51.910;8.374;2022-12-01T03:59:30;6.30;99.90
37002;DHT22;22913;51.910;8.374;2022-12-01T04:02:19;6.30;99.90
37002;DHT22;22913;51.910;8.374;2022-12-01T04:05:06;6.30;99.90
37002;DHT22;22913;51.910;8.374;2022-12-01T04:07:52;6.30;99.90
37002;DHT22;22913;51.910;8.374;2022-12-01T04:10:38;6.30;99.90
37002;DHT22;22913;51.910;8.374;2022-12-01T04:13:25;6.30;99.90
37002;DHT22;22913;51.910;8.374;2022-12-01T04:16:09;6.20;99.90
37002;DHT22;22913;51.910;8.374;2022-12-01T04:18:55;6.20;99.90
37002;DHT22;22913;51.910;8.374;2022-12-01T04:21:41;6.20;99.90
37002;DHT22;22913;51.910;8.374;2022-12-01T04:24:27;6.20;99.90
37002;DHT22;22913;51.910;8.374;2022-12-01T04:27:13;6.30;99.90
37002;DHT22;22913;51.910;8.374;2022-12-01T04:30:00;6.30;99.90
37002;DHT22;22913;51.910;8.374;2022-12-01T04:32:46;6.30;99.90
37002;DHT22;22913;51.910;8.374;2022-12-01T04:35:31;6.30;99.90
37002;DHT22;22913;51.910;8.374;2022-12-01T04:38:17;6.30;99.90
37002;DHT22;22913;51.910;8.374;2022-12-01T04:41:07;6.30;99.90
37002;DHT22;22913;51.910;8.374;2022-12-01T04:43:54;6.30;99.90
37002;DHT22;22913;51.910;8.374;2022-12-01T04:46:41;6.30;99.90
37002;DHT22;22913;51.910;8.374;2022-12-01T04:49:26;6.30;99.90
37002;DHT22;22913;51.910;8.374;2022-12-01T04:52:12;6.30;99.90
37002;DHT22;22913;51.910;8.374;2022-12-01T04:54:58;6.30;99.90
37002;DHT22;22913;51.910;8.374;2022-12-01T04:57:43;6.30;99.90
37002;DHT22;22913;51.910;8.374;2022-12-01T05:00:29;6.40;99.90
37002;DHT22;22913;51.910;8.374;2022-12-01T05:03:16;6.30;99.90
37002;DHT22;22913;51.910;8.374;2022-12-01T05:06:04;6.30;99.90
37002;DHT22;22913;51.910;8.374;2022-12-01T05:08:52;6.30;99.90
37002;DHT22;22913;51.910;8.374;2022-12-01T05:11:38;6.30;99.90
37002;DHT22;22913;51.910;8.374;2022-12-01T05:14:24;6.30;99.90
37002;DHT22;22913;51.910;8.374;2022-12-01T05:17:09;6.30;99.90
37002;DHT22;22913;51.910;8.374;2022-12-01T05:19:56;6.30;99.90
37002;DHT22;22913;51.910;8.374;2022-12-01T05:22:59;6.40;99.90
37002;DHT22;22913;51.910;8.374;2022-12-01T05:25:45;6.40;99.90
37002;DHT22;22913;51.910;8.374;2022-12-01T05:28:31;6.30;99.90
37002;DHT22;22913;51.910;8.374;2022-12-01T05:31:17;6.30;99.90
37002;DHT22;22913;51.910;8.374;2022-12-01T05:34:03;6.20;99.90
37002;DHT22;22913;51.910;8.374;2022-12-01T05:36:50;6.20;99.90
37002;DHT22;22913;51.910;8.374;2022-12-01T05:39:36;6.30;99.90
37002;DHT22;22913;51.910;8.374;2022-12-01T05:42:23;6.20;99.90
37002;DHT22;22913;51.910;8.374;2022-12-01T05:45:10;6.20;99.90
37002;DHT22;22913;51.910;8.374;2022-12-01T05:47:57;6.10;99.90
37002;DHT22;22913;51.910;8.374;2022-12-01T05:50:43;6.10;99.90
37002;DHT22;22913;51.910;8.374;2022-12-01T05:53:30;6.20;99.90
37002;DHT22;22913;51.910;8.374;2022-12-01T05:56:16;6.20;99.90
37002;DHT22;22913;51.910;8.374;2022-12-01T05:59:01;6.20;99.90
37002;DHT22;22913;51.910;8.374;2022-12-01T06:01:47;6.20;99.90
37002;DHT22;22913;51.910;8.374;2022-12-01T06:04:33;6.10;99.90
37002;DHT22;22913;51.910;8.374;2022-12-01T06:07:19;6.10;99.90
37002;DHT22;22913;51.910;8.374;2022-12-01T06:10:09;6.10;99.90
37002;DHT22;22913;51.910;8.374;2022-12-01T06:12:55;6.20;99.90
37002;DHT22;22913;51.910;8.374;2022-12-01T06:15:41;6.20;99.90
37002;DHT22;22913;51.910;8.374;2022-12-01T06:18:28;6.20;99.90
37002;DHT22;22913;51.910;8.374;2022-12-01T06:21:14;6.20;99.90
37002;DHT22;22913;51.910;8.374;2022-12-01T06:24:00;6.20;99.90
37002;DHT22;22913;51.910;8.374;2022-12-01T06:26:47;6.20;99.90
37002;DHT22;22913;51.910;8.374;2022-12-01T06:29:33;6.20;99.90
37002;DHT22;22913;51.910;8.374;2022-12-01T06:32:19;6.20;99.90
37002;DHT22;22913;51.910;8.374;2022-12-01T06:35:06;6.20;99.90
37002;DHT22;22913;51.910;8.374;2022-12-01T06:37:52;6.20;99.90
37002;DHT22;22913;51.910;8.374;2022-12-01T06:40:38;6.30;99.90
37002;DHT22;22913;51.910;8.374;2022-12-01T06:43:25;6.20;99.90
37002;DHT22;22913;51.910;8.374;2022-12-01T06:46:12;6.20;99.90
37002;DHT22;22913;51.910;8.374;2022-12-01T06:48:57;6.10;99.90
37002;DHT22;22913;51.910;8.374;2022-12-01T06:51:43;6.10;99.90
37002;DHT22;22913;51.910;8.374;2022-12-01T06:54:29;6.10;99.90
37002;DHT22;22913;51.910;8.374;2022-12-01T06:57:15;6.10;99.90
37002;DHT22;22913;51.910;8.374;2022-12-01T07:00:03;6.10;99.90
37002;DHT22;22913;51.910;8.374;2022-12-01T07:02:49;6.10;99.90
37002;DHT22;22913;51.910;8.374;2022-12-01T07:05:35;6.10;99.90
37002;DHT22;22913;51.910;8.374;2022-12-01T07:08:21;6.10;99.90
37002;DHT22;22913;51.910;8.374;2022-12-01T07:11:08;6.10;99.90
37002;DHT22;22913;51.910;8.374;2022-12-01T07:13:56;6.10;99.90
37002;DHT22;22913;51.910;8.374;2022-12-01T07:16:45;6.10;99.90
37002;DHT22;22913;51.910;8.374;2022-12-01T07:19:30;6.20;99.90
37002;DHT22;22913;51.910;8.374;2022-12-01T07:22:16;6.20;99.90
37002;DHT22;22913;51.910;8.374;2022-12-01T07:25:02;6.20;99.90
37002;DHT22;22913;51.910;8.374;2022-12-01T07:27:48;6.20;99.90
37002;DHT22;22913;51.910;8.374;2022-12-01T07:30:35;6.10;99.90
37002;DHT22;22913;51.910;8.374;2022-12-01T07:33:22;6.10;99.90
37002;DHT22;22913;51.910;8.374;2022-12-01T07:36:08;6.10;99.90
37002;DHT22;22913;51.910;8.374;2022-12-01T07:38:55;6.10;99.90
37002;DHT22;22913;51.910;8.374;2022-12-01T07:41:41;6.10;99.90
37002;DHT22;22913;51.910;8.374;2022-12-01T07:44:26;6.00;99.90
37002;DHT22;22913;51.910;8.374;2022-12-01T07:47:13;6.00;99.90
37002;DHT22;22913;51.910;8.374;2022-12-01T07:50:00;6.00;99.90
37002;DHT22;22913;51.910;8.374;2022-12-01T07:52:55;6.00;99.90
37002;DHT22;22913;51.910;8.374;2022-12-01T07:55:47;6.00;99.90
37002;DHT22;22913;51.910;8.374;2022-12-01T07:58:32;6.00;99.90
37002;DHT22;22913;51.910;8.374;2022-12-01T08:01:20;6.00;99.90
37002;DHT22;22913;51.910;8.374;2022-12-01T08:04:06;6.00;99.90
37002;DHT22;22913;51.910;8.374;2022-12-01T08:06:53;6.10;99.90
37002;DHT22;22913;51.910;8.374;2022-12-01T08:09:38;6.10;99.90
37002;DHT22;22913;51.910;8.374;2022-12-01T08:12:24;6.10;99.90
37002;DHT22;22913;51.910;8.374;2022-12-01T08:15:09;6.10;99.90
37002;DHT22;22913;51.910;8.374;2022-12-01T08:17:55;6.10;99.90
37002;DHT22;22913;51.910;8.374;2022-12-01T08:20:44;6.20;99.90
37002;DHT22;22913;51.910;8.374;2022-12-01T08:23:31;6.10;99.90
37002;DHT22;22913;51.910;8.374;2022-12-01T08:26:17;6.20;99.90
37002;DHT22;22913;51.910;8.374;2022-12-01T08:29:03;6.20;99.90
37002;DHT22;22913;51.910;8.374;2022-12-01T08:31:49;6.20;99.90
37002;DHT22;22913;51.910;8.374;2022-12-01T08:34:35;6.30;99.90
37002;DHT22;22913;51.910;8.374;2022-12-01T08:37:21;6.30;99.90
37002;DHT22;22913;51.910;8.374;2022-12-01T08:40:09;6.40;99.90
37002;DHT22;22913;51.910;8.374;2022-12-01T08:42:55;6.40;99.90
37002;DHT22;22913;51.910;8.374;2022-12-01T08:45:43;6.40;99.90
37002;DHT22;22913;51.910;8.374;2022-12-01T08:48:28;6.50;99.90
37002;DHT22;22913;51.910;8.374;2022-12-01T08:51:15;6.50;99.90
37002;DHT22;22913;51.910;8.374;2022-12-01T08:54:01;6.50;99.90
37002;DHT22;22913;51.910;8.374;2022-12-01T08:56:48;6.40;99.90
37002;DHT22;22913;51.910;8.374;2022-12-01T08:59:34;6.40;99.90
37002;DHT22;22913;51.910;8.374;2022-12-01T09:02:19;6.50;99.90
37002;DHT22;22913;51.910;8.374;2022-12-01T09:05:07;6.50;99.90
37002;DHT22;22913;51.910;8.374;2022-12-01T09:07:52;6.60;99.90
37002;DHT22;22913;51.910;8.374;2022-12-01T09:10:52;6.70;99.90
37002;DHT22;22913;51.910;8.374;2022-12-01T09:13:39;6.70;99.90
37002;DHT22;22913;51.910;8.374;2022-12-01T09:16:24;6.70;99.90
37002;DHT22;22913;51.910;8.374;2022-12-01T09:19:10;6.70;99.90
37002;DHT22;22913;51.910;8.374;2022-12-01T09:21:56;6.80;99.90
37002;DHT22;22913;51.910;8.374;2022-12-01T09:24:41;6.70;99.90
37002;DHT22;22913;51.910;8.374;2022-12-01T09:27:27;6.70;99.90
37002;DHT22;22913;51.910;8.374;2022-12-01T09:30:14;6.70;99.90
37002;DHT22;22913;51.910;8.374;2022-12-01T09:33:00;6.70;99.90
37002;DHT22;22913;51.910;8.374;2022-12-01T09:35:46;6.80;99.90
37002;DHT22;22913;51.910;8.374;2022-12-01T09:38:32;6.80;99.90
37002;DHT22;22913;51.910;8.374;2022-12-01T09:41:20;6.70;99.90
37002;DHT22;22913;51.910;8.374;2022-12-01T09:44:20;6.70;99.90
37002;DHT22;22913;51.910;8.374;2022-12-01T09:47:17;6.70;99.90
37002;DHT22;22913;51.910;8.374;2022-12-01T09:50:08;6.70;99.90
37002;DHT22;22913;51.910;8.374;2022-12-01T09:52:58;6.70;99.90
37002;DHT22;22913;51.910;8.374;2022-12-01T09:55:45;6.60;99.90
37002;DHT22;22913;51.910;8.374;2022-12-01T09:58:30;6.60;99.90
37002;DHT22;22913;51.910;8.374;2022-12-01T10:01:18;6.70;99.90
37002;DHT22;22913;51.910;8.374;2022-12-01T10:04:08;6.80;99.90
37002;DHT22;22913;51.910;8.374;2022-12-01T10:06:59;6.80;99.90
37002;DHT22;22913;51.910;8.374;2022-12-01T10:09:50;6.80;99.90
37002;DHT22;22913;51.910;8.374;2022-12-01T10:12:39;6.90;99.90
37002;DHT22;22913;51.910;8.374;2022-12-01T10:15:34;6.90;99.90
37002;DHT22;22913;51.910;8.374;2022-12-01T10:18:34;6.90;99.90
37002;DHT22;22913;51.910;8.374;2022-12-01T10:21:31;7.00;99.90
37002;DHT22;22913;51.910;8.374;2022-12-01T10:24:37;7.00;99.90
37002;DHT22;22913;51.910;8.374;2022-12-01T10:27:39;7.10;99.90
37002;DHT22;22913;51.910;8.374;2022-12-01T10:30:28;7.10;99.90
37002;DHT22;22913;51.910;8.374;2022-12-01T10:33:19;7.10;99.90
37002;DHT22;22913;51.910;8.374;2022-12-01T10:36:07;7.20;99.90
37002;DHT22;22913;51.910;8.374;2022-12-01T10:38:54;7.30;99.90
37002;DHT22;22913;51.910;8.374;2022-12-01T10:41:40;7.30;99.90
37002;DHT22;22913;51.910;8.374;2022-12-01T10:44:27;7.40;99.90
37002;DHT22;22913;51.910;8.374;2022-12-01T10:47:18;7.40;99.90
37002;DHT22;22913;51.910;8.374;2022-12-01T10:50:05;7.40;99.90
37002;DHT22;22913;51.910;8.374;2022-12-01T10:52:51;7.40;99.90
37002;DHT22;22913;51.910;8.374;2022-12-01T10:55:38;7.40;99.90
37002;DHT22;22913;51.910;8.374;2022-12-01T10:58:25;7.50;99.90
37002;DHT22;22913;51.910;8.374;2022-12-01T11:01:16;7.60;99.90
37002;DHT22;22913;51.910;8.374;2022-12-01T11:04:06;7.70;99.90
37002;DHT22;22913;51.910;8.374;2022-12-01T11:06:52;7.90;99.90
37002;DHT22;22913;51.910;8.374;2022-12-01T11:09:38;8.10;99.90
37002;DHT22;22913;51.910;8.374;2022-12-01T11:12:25;8.40;99.90
37002;DHT22;22913;51.910;8.374;2022-12-01T11:15:19;8.50;99.90
37002;DHT22;22913;51.910;8.374;2022-12-01T11:18:19;8.70;99.90
37002;DHT22;22913;51.910;8.374;2022-12-01T11:21:08;8.70;99.90
37002;DHT22;22913;51.910;8.374;2022-12-01T11:23:55;8.80;99.90
37002;DHT22;22913;51.910;8.374;2022-12-01T11:26:41;8.80;99.90
37002;DHT22;22913;51.910;8.374;2022-12-01T11:29:34;8.60;99.90
37002;DHT22;22913;51.910;8.374;2022-12-01T11:32:21;8.60;99.90
37002;DHT22;22913;51.910;8.374;2022-12-01T11:35:18;8.60;99.90
37002;DHT22;22913;51.910;8.374;2022-12-01T11:38:05;8.50;99.90
37002;DHT22;22913;51.910;8.374;2022-12-01T11:40:52;8.40;99.90
37002;DHT22;22913;51.910;8.374;2022-12-01T11:43:39;8.50;99.90
37002;DHT22;22913;51.910;8.374;2022-12-01T11:46:32;8.60;99.90
37002;DHT22;22913;51.910;8.374;2022-12-01T11:49:20;8.90;99.90
37002;DHT22;22913;51.910;8.374;2022-12-01T11:52:16;9.00;99.90
37002;DHT22;22913;51.910;8.374;2022-12-01T11:55:19;9.10;99.90
37002;DHT22;22913;51.910;8.374;2022-12-01T11:58:07;9.10;99.90
37002;DHT22;22913;51.910;8.374;2022-12-01T12:00:54;9.20;99.90
37002;DHT22;22913;51.910;8.374;2022-12-01T12:03:49;9.30;99.90
37002;DHT22;22913;51.910;8.374;2022-12-01T12:06:46;9.30;99.90
37002;DHT22;22913;51.910;8.374;2022-12-01T12:09:44;9.10;99.90
37002;DHT22;22913;51.910;8.374;2022-12-01T12:12:42;9.10;99.90
37002;DHT22;22913;51.910;8.374;2022-12-01T12:15:42;8.80;99.90
37002;DHT22;22913;51.910;8.374;2022-12-01T12:18:46;8.60;99.90
37002;DHT22;22913;51.910;8.374;2022-12-01T12:21:38;8.50;99.90
37002;DHT22;22913;51.910;8.374;2022-12-01T12:24:38;8.40;99.90
37002;DHT22;22913;51.910;8.374;2022-12-01T12:27:34;8.10;99.90
37002;DHT22;22913;51.910;8.374;2022-12-01T12:30:25;8.00;99.90
37002;DHT22;22913;51.910;8.374;2022-12-01T12:33:40;7.80;99.90
37002;DHT22;22913;51.910;8.374;2022-12-01T12:36:37;7.80;99.90
37002;DHT22;22913;51.910;8.374;2022-12-01T12:42:45;7.60;99.90
37002;DHT22;22913;51.910;8.374;2022-12-01T12:45:41;7.70;99.90
37002;DHT22;22913;51.910;8.374;2022-12-01T12:48:49;7.60;99.90
37002;DHT22;22913;51.910;8.374;2022-12-01T12:51:43;7.60;99.90
37002;DHT22;22913;51.910;8.374;2022-12-01T12:54:34;7.60;99.90
37002;DHT22;22913;51.910;8.374;2022-12-01T12:57:26;7.50;99.90
37002;DHT22;22913;51.910;8.374;2022-12-01T13:00:16;7.50;99.90
37002;DHT22;22913;51.910;8.374;2022-12-01T13:03:08;7.60;99.90
37002;DHT22;22913;51.910;8.374;2022-12-01T13:06:01;7.70;99.90
37002;DHT22;22913;51.910;8.374;2022-12-01T13:08:56;7.80;99.90
37002;DHT22;22913;51.910;8.374;2022-12-01T13:11:45;7.70;99.90
37002;DHT22;22913;51.910;8.374;2022-12-01T13:14:35;7.80;99.90
37002;DHT22;22913;51.910;8.374;2022-12-01T13:17:27;7.80;99.90
37002;DHT22;22913;51.910;8.374;2022-12-01T13:20:16;7.90;99.90
37002;DHT22;22913;51.910;8.374;2022-12-01T13:23:02;7.90;99.90
37002;DHT22;22913;51.910;8.374;2022-12-01T13:25:53;7.80;99.90
37002;DHT22;22913;51.910;8.374;2022-12-01T13:28:41;7.70;99.90
37002;DHT22;22913;51.910;8.374;2022-12-01T13:31:28;7.60;99.90
37002;DHT22;22913;51.910;8.374;2022-12-01T13:34:33;7.60;99.90
37002;DHT22;22913;51.910;8.374;2022-12-01T13:37:25;7.50;99.90
37002;DHT22;22913;51.910;8.374;2022-12-01T13:40:19;7.50;99.90
37002;DHT22;22913;51.910;8.374;2022-12-01T13:43:19;7.40;99.90
37002;DHT22;22913;51.910;8.374;2022-12-01T13:46:20;7.40;99.90
37002;DHT22;22913;51.910;8.374;2022-12-01T13:49:31;7.40;99.90
37002;DHT22;22913;51.910;8.374;2022-12-01T13:52:28;7.30;99.90
37002;DHT22;22913;51.910;8.374;2022-12-01T13:55:26;7.20;99.90
37002;DHT22;22913;51.910;8.374;2022-12-01T13:58:41;7.10;99.90
37002;DHT22;22913;51.910;8.374;2022-12-01T14:02:05;7.00;99.90
37002;DHT22;22913;51.910;8.374;2022-12-01T14:04:50;7.00;99.90
37002;DHT22;22913;51.910;8.374;2022-12-01T14:07:37;7.00;99.90
37002;DHT22;22913;51.910;8.374;2022-12-01T14:10:28;6.90;99.90
37002;DHT22;22913;51.910;8.374;2022-12-01T14:13:17;6.80;99.90
37002;DHT22;22913;51.910;8.374;2022-12-01T14:16:07;6.70;99.90
37002;DHT22;22913;51.910;8.374;2022-12-01T14:18:55;6.80;99.90
37002;DHT22;22913;51.910;8.374;2022-12-01T14:21:44;6.80;99.90
37002;DHT22;22913;51.910;8.374;2022-12-01T14:24:33;6.80;99.90
37002;DHT22;22913;51.910;8.374;2022-12-01T14:27:36;6.80;99.90
37002;DHT22;22913;51.910;8.374;2022-12-01T14:33:56;6.80;99.90
37002;DHT22;22913;51.910;8.374;2022-12-01T14:36:45;6.70;99.90
37002;DHT22;22913;51.910;8.374;2022-12-01T14:39:34;6.70;99.90
37002;DHT22;22913;51.910;8.374;2022-12-01T14:42:26;6.70;99.90
37002;DHT22;22913;51.910;8.374;2022-12-01T14:45:33;6.50;99.90
37002;DHT22;22913;51.910;8.374;2022-12-01T14:48:24;6.50;99.90
37002;DHT22;22913;51.910;8.374;2022-12-01T14:51:20;6.40;99.90
37002;DHT22;22913;51.910;8.374;2022-12-01T14:54:09;6.20;99.90
37002;DHT22;22913;51.910;8.374;2022-12-01T14:57:02;6.20;99.90
37002;DHT22;22913;51.910;8.374;2022-12-01T15:00:01;6.20;99.90
37002;DHT22;22913;51.910;8.374;2022-12-01T15:02:51;6.20;99.90
37002;DHT22;22913;51.910;8.374;2022-12-01T15:05:39;6.20;99.90
37002;DHT22;22913;51.910;8.374;2022-12-01T15:08:29;6.20;99.90
37002;DHT22;22913;51.910;8.374;2022-12-01T15:11:20;6.20;99.90
37002;DHT22;22913;51.910;8.374;2022-12-01T15:14:21;6.20;99.90
37002;DHT22;22913;51.910;8.374;2022-12-01T15:17:27;6.20;99.90
37002;DHT22;22913;51.910;8.374;2022-12-01T15:20:28;6.00;99.90
37002;DHT22;22913;51.910;8.374;2022-12-01T15:23:15;6.00;99.90
37002;DHT22;22913;51.910;8.374;2022-12-01T15:26:02;6.00;99.90
37002;DHT22;22913;51.910;8.374;2022-12-01T15:28:48;5.90;99.90
37002;DHT22;22913;51.910;8.374;2022-12-01T15:31:34;6.00;99.90
37002;DHT22;22913;51.910;8.374;2022-12-01T15:34:21;5.90;99.90
37002;DHT22;22913;51.910;8.374;2022-12-01T15:37:11;5.80;99.90
37002;DHT22;22913;51.910;8.374;2022-12-01T15:39:59;5.80;99.90
37002;DHT22;22913;51.910;8.374;2022-12-01T15:43:01;5.80;99.90
37002;DHT22;22913;51.910;8.374;2022-12-01T15:45:52;5.80;99.90
37002;DHT22;22913;51.910;8.374;2022-12-01T15:48:38;5.80;99.90
37002;DHT22;22913;51.910;8.374;2022-12-01T15:51:26;5.80;99.90
37002;DHT22;22913;51.910;8.374;2022-12-01T15:54:17;5.80;99.90
37002;DHT22;22913;51.910;8.374;2022-12-01T15:57:04;5.80;99.90
37002;DHT22;22913;51.910;8.374;2022-12-01T15:59:54;5.70;99.90
37002;DHT22;22913;51.910;8.374;2022-12-01T16:02:40;5.70;99.90
37002;DHT22;22913;51.910;8.374;2022-12-01T16:05:29;5.70;99.90
37002;DHT22;22913;51.910;8.374;2022-12-01T16:08:16;5.80;99.90
37002;DHT22;22913;51.910;8.374;2022-12-01T16:11:10;5.80;99.90
37002;DHT22;22913;51.910;8.374;2022-12-01T16:13:59;5.70;99.90
37002;DHT22;22913;51.910;8.374;2022-12-01T16:16:47;5.70;99.90
37002;DHT22;22913;51.910;8.374;2022-12-01T16:19:33;5.60;99.90
37002;DHT22;22913;51.910;8.374;2022-12-01T16:22:20;5.70;99.90
37002;DHT22;22913;51.910;8.374;2022-12-01T16:25:15;5.70;99.90
37002;DHT22;22913;51.910;8.374;2022-12-01T16:28:03;5.70;99.90
37002;DHT22;22913;51.910;8.374;2022-12-01T16:30:49;5.60;99.90
37002;DHT22;22913;51.910;8.374;2022-12-01T16:33:37;5.70;99.90
37002;DHT22;22913;51.910;8.374;2022-12-01T16:36:22;5.70;99.90
37002;DHT22;22913;51.910;8.374;2022-12-01T16:39:08;5.70;99.90
37002;DHT22;22913;51.910;8.374;2022-12-01T16:41:58;5.60;99.90
37002;DHT22;22913;51.910;8.374;2022-12-01T16:44:44;5.60;99.90
37002;DHT22;22913;51.910;8.374;2022-12-01T16:47:30;5.60;99.90
37002;DHT22;22913;51.910;8.374;2022-12-01T16:50:20;5.50;99.90
37002;DHT22;22913;51.910;8.374;2022-12-01T16:53:05;5.50;99.90
37002;DHT22;22913;51.910;8.374;2022-12-01T16:55:52;5.50;99.90
37002;DHT22;22913;51.910;8.374;2022-12-01T16:58:38;5.50;99.90
37002;DHT22;22913;51.910;8.374;2022-12-01T17:01:23;5.40;99.90
37002;DHT22;22913;51.910;8.374;2022-12-01T17:04:09;5.50;99.90
37002;DHT22;22913;51.910;8.374;2022-12-01T17:06:56;5.40;99.90
37002;DHT22;22913;51.910;8.374;2022-12-01T17:09:41;5.30;99.90
37002;DHT22;22913;51.910;8.374;2022-12-01T17:12:27;5.30;99.90
37002;DHT22;22913;51.910;8.374;2022-12-01T17:15:12;5.30;99.90
37002;DHT22;22913;51.910;8.374;2022-12-01T17:17:58;5.20;99.90
37002;DHT22;22913;51.910;8.374;2022-12-01T17:20:44;5.30;99.90
37002;DHT22;22913;51.910;8.374;2022-12-01T17:23:31;5.30;99.90
37002;DHT22;22913;51.910;8.374;2022-12-01T17:26:18;5.30;99.90
37002;DHT22;22913;51.910;8.374;2022-12-01T17:29:03;5.20;99.90
37002;DHT22;22913;51.910;8.374;2022-12-01T17:31:49;5.20;99.90
37002;DHT22;22913;51.910;8.374;2022-12-01T17:34:34;5.10;99.90
37002;DHT22;22913;51.910;8.374;2022-12-01T17:37:20;5.10;99.90
37002;DHT22;22913;51.910;8.374;2022-12-01T17:40:10;5.20;99.90
37002;DHT22;22913;51.910;8.374;2022-12-01T17:42:57;5.10;99.90
37002;DHT22;22913;51.910;8.374;2022-12-01T17:45:42;5.20;99.90
37002;DHT22;22913;51.910;8.374;2022-12-01T17:48:28;5.20;99.90
37002;DHT22;22913;51.910;8.374;2022-12-01T17:51:14;5.10;99.90
37002;DHT22;22913;51.910;8.374;2022-12-01T17:53:59;5.10;99.90
37002;DHT22;22913;51.910;8.374;2022-12-01T17:56:46;5.10;99.90
37002;DHT22;22913;51.910;8.374;2022-12-01T17:59:32;5.00;99.90
37002;DHT22;22913;51.910;8.374;2022-12-01T18:02:17;5.10;99.90
37002;DHT22;22913;51.910;8.374;2022-12-01T18:05:04;5.10;99.90
37002;DHT22;22913;51.910;8.374;2022-12-01T18:07:49;5.10;99.90
37002;DHT22;22913;51.910;8.374;2022-12-01T18:10:35;5.00;99.90
37002;DHT22;22913;51.910;8.374;2022-12-01T18:13:22;5.00;99.90
37002;DHT22;22913;51.910;8.374;2022-12-01T18:16:09;5.10;99.90